createdAt,value
2019-06-08T00:01:06.338Z,72.70
2019-06-08T00:03:32.498Z,72.90
2019-06-08T00:05:58.666Z,72.60
2019-06-08T00:08:25.297Z,73.10
2019-06-08T00:10:51.486Z,73.30
2019-06-08T00:13:17.665Z,73.30
2019-06-08T00:15:43.892Z,73.40
2019-06-08T00:18:10.075Z,73.20
2019-06-08T00:20:36.336Z,72.90
2019-06-08T00:23:02.863Z,73.00
2019-06-08T00:25:30.021Z,72.60
2019-06-08T00:27:56.193Z,72.70
2019-06-08T00:30:22.488Z,72.90
2019-06-08T00:32:48.665Z,72.90
2019-06-08T00:35:14.839Z,72.50
2019-06-08T00:37:41.045Z,72.80
2019-06-08T00:40:08.394Z,72.60
2019-06-08T00:42:34.612Z,72.70
2019-06-08T00:45:00.767Z,72.50
2019-06-08T00:47:42.046Z,72.90
2019-06-08T00:49:55.276Z,72.10
2019-06-08T00:52:21.445Z,72.40
2019-06-08T00:54:47.724Z,72.70
2019-06-08T00:57:13.898Z,72.50
2019-06-08T00:59:40.078Z,72.80
2019-06-08T01:02:06.269Z,72.70
2019-06-08T01:04:32.529Z,73.10
2019-06-08T01:06:58.697Z,73.20
2019-06-08T01:09:24.874Z,72.90
2019-06-08T01:11:51.105Z,73.00
2019-06-08T01:14:18.822Z,72.80
2019-06-08T01:16:45.160Z,72.90
2019-06-08T01:19:11.315Z,72.80
2019-06-08T01:21:37.497Z,71.90
2019-06-08T01:24:03.765Z,72.10
2019-06-08T01:26:30.209Z,72.00
2019-06-08T01:28:56.543Z,70.50
2019-06-08T01:31:22.735Z,69.30
2019-06-08T01:33:48.941Z,67.40
2019-06-08T01:36:15.101Z,66.70
2019-06-08T01:38:41.262Z,66.60
2019-06-08T01:41:07.433Z,66.20
2019-06-08T01:43:33.663Z,66.10
2019-06-08T01:45:59.839Z,64.20
2019-06-08T01:48:26.323Z,63.70
2019-06-08T01:50:52.633Z,63.90
2019-06-08T01:53:18.885Z,63.90
2019-06-08T01:55:45.041Z,63.20
2019-06-08T01:58:11.209Z,62.10
2019-06-08T02:00:41.112Z,62.10
2019-06-08T02:03:05.689Z,61.50
2019-06-08T02:05:32.506Z,61.60
2019-06-08T02:07:59.587Z,61.70
2019-06-08T02:10:26.662Z,62.70
2019-06-08T02:12:52.951Z,61.80
2019-06-08T02:15:19.432Z,61.70
2019-06-08T02:17:45.600Z,62.00
2019-06-08T02:20:12.193Z,61.90
2019-06-08T02:22:39.388Z,61.10
2019-06-08T02:25:06.433Z,61.70
2019-06-08T02:27:33.577Z,61.80
2019-06-08T02:30:00.061Z,61.80
2019-06-08T02:32:28.383Z,61.70
2019-06-08T02:34:54.625Z,61.50
2019-06-08T02:37:20.860Z,62.00
2019-06-08T02:39:47.092Z,61.80
2019-06-08T02:42:13.269Z,62.20
2019-06-08T02:44:40.580Z,62.90
2019-06-08T02:47:07.109Z,63.40
2019-06-08T02:49:33.329Z,62.00
2019-06-08T02:51:59.891Z,61.70
2019-06-08T02:54:27.088Z,61.90
2019-06-08T02:56:53.954Z,61.20
2019-06-08T02:59:21.421Z,61.30
2019-06-08T03:01:49.493Z,61.10
2019-06-08T03:04:15.976Z,61.80
2019-06-08T03:06:44.161Z,61.60
2019-06-08T03:09:10.326Z,61.40
2019-06-08T03:11:37.027Z,61.50
2019-06-08T03:14:04.221Z,61.40
2019-06-08T03:16:31.236Z,60.80
2019-06-08T03:18:57.667Z,61.40
2019-06-08T03:21:23.856Z,61.90
2019-06-08T03:23:50.014Z,62.00
2019-06-08T03:26:16.312Z,62.30
2019-06-08T03:28:44.259Z,61.50
2019-06-08T03:31:10.558Z,62.00
2019-06-08T03:33:43.226Z,61.90
2019-06-08T03:36:04.878Z,61.50
2019-06-08T03:38:31.114Z,61.80
2019-06-08T03:40:57.300Z,61.90
2019-06-08T03:43:23.470Z,62.30
2019-06-08T03:45:50.891Z,61.80
2019-06-08T03:48:17.036Z,61.90
2019-06-08T03:50:44.438Z,62.30
2019-06-08T03:53:11.316Z,62.30
2019-06-08T03:55:38.025Z,62.40
2019-06-08T03:58:04.840Z,63.50
2019-06-08T04:00:31.037Z,62.90
2019-06-08T04:02:57.198Z,62.70
2019-06-08T04:05:23.421Z,62.50
2019-06-08T04:07:50.441Z,62.30
2019-06-08T04:10:17.575Z,62.50
2019-06-08T04:12:44.261Z,62.40
2019-06-08T04:15:11.432Z,62.70
2019-06-08T04:17:37.911Z,63.00
2019-06-08T04:20:11.061Z,63.20
2019-06-08T04:22:37.961Z,63.20
2019-06-08T04:25:05.560Z,62.90
2019-06-08T04:27:31.762Z,63.40
2019-06-08T04:29:57.921Z,62.80
2019-06-08T04:32:24.182Z,63.10
2019-06-08T04:34:50.358Z,63.00
2019-06-08T04:37:16.733Z,63.90
2019-06-08T04:39:44.446Z,63.10
2019-06-08T04:42:10.877Z,63.70
2019-06-08T04:44:38.495Z,63.40
2019-06-08T04:47:04.763Z,63.50
2019-06-08T04:49:30.995Z,63.60
2019-06-08T04:51:57.312Z,63.20
2019-06-08T04:54:23.547Z,63.60
2019-06-08T04:56:49.785Z,64.00
2019-06-08T04:59:16.191Z,64.20
2019-06-08T05:01:43.077Z,64.70
2019-06-08T05:04:09.318Z,64.30
2019-06-08T05:06:35.505Z,64.50
2019-06-08T05:09:02.699Z,65.00
2019-06-08T05:11:29.452Z,64.70
2019-06-08T05:13:55.630Z,64.60
2019-06-08T05:16:21.825Z,65.20
2019-06-08T05:18:49.455Z,64.90
2019-06-08T05:21:16.098Z,64.50
2019-06-08T05:23:43.387Z,64.30
2019-06-08T05:26:09.711Z,64.30
2019-06-08T05:28:35.892Z,63.60
2019-06-08T05:31:02.120Z,63.50
2019-06-08T05:33:28.278Z,64.30
2019-06-08T05:35:54.466Z,63.40
2019-06-08T05:38:20.666Z,63.40
2019-06-08T05:40:47.700Z,63.70
2019-06-08T05:43:14.111Z,63.80
2019-06-08T05:45:41.507Z,63.70
2019-06-08T05:48:07.902Z,63.80
2019-06-08T05:50:34.131Z,63.00
2019-06-08T05:53:00.386Z,63.30
2019-06-08T05:55:26.703Z,63.90
2019-06-08T05:57:53.148Z,63.00
2019-06-08T06:00:19.929Z,62.70
2019-06-08T06:02:47.010Z,63.60
2019-06-08T06:05:13.646Z,63.50
2019-06-08T06:07:40.567Z,62.50
2019-06-08T06:10:07.291Z,63.20
2019-06-08T06:12:33.504Z,63.40
2019-06-08T06:14:59.864Z,64.20
2019-06-08T06:17:26.081Z,62.80
2019-06-08T06:19:52.308Z,62.40
2019-06-08T06:22:18.501Z,62.40
2019-06-08T06:24:45.718Z,62.20
2019-06-08T06:27:11.977Z,61.90
2019-06-08T06:29:38.145Z,61.00
2019-06-08T06:32:07.093Z,60.40
2019-06-08T06:34:33.353Z,60.60
2019-06-08T06:36:59.533Z,60.60
2019-06-08T06:39:25.736Z,61.20
2019-06-08T06:41:52.189Z,59.90
2019-06-08T06:44:18.573Z,59.70
2019-06-08T06:46:46.091Z,59.60
2019-06-08T06:49:12.414Z,60.60
2019-06-08T06:51:38.975Z,59.40
2019-06-08T06:54:05.269Z,58.60
2019-06-08T06:56:31.453Z,58.40
2019-06-08T06:58:57.741Z,57.60
2019-06-08T07:01:23.921Z,58.90
2019-06-08T07:03:50.172Z,57.50
2019-06-08T07:06:16.510Z,56.90
2019-06-08T07:08:44.016Z,57.50
2019-06-08T07:11:10.347Z,57.90
2019-06-08T07:13:36.558Z,57.00
2019-06-08T07:16:17.370Z,56.50
2019-06-08T07:18:30.793Z,55.80
2019-06-08T07:20:56.993Z,57.10
2019-06-08T07:23:23.140Z,55.40
2019-06-08T07:25:50.426Z,55.70
2019-06-08T07:28:16.900Z,55.00
2019-06-08T07:30:43.131Z,55.30
2019-06-08T07:33:09.313Z,54.90
2019-06-08T07:35:35.483Z,54.90
2019-06-08T07:38:01.750Z,54.00
2019-06-08T07:40:27.972Z,53.60
2019-06-08T07:42:55.263Z,55.40
2019-06-08T07:45:22.305Z,56.10
2019-06-08T07:47:49.851Z,55.60
2019-06-08T07:50:17.042Z,55.20
2019-06-08T07:52:43.288Z,54.40
2019-06-08T07:55:09.812Z,53.50
2019-06-08T07:57:36.016Z,53.90
2019-06-08T08:00:09.228Z,53.50
2019-06-08T08:02:33.145Z,54.50
2019-06-08T08:04:59.332Z,53.80
2019-06-08T08:07:25.617Z,53.60
2019-06-08T08:09:53.155Z,52.80
2019-06-08T08:12:19.454Z,51.70
2019-06-08T08:14:45.697Z,52.10
2019-06-08T08:17:11.948Z,50.80
2019-06-08T08:19:38.100Z,51.30
2019-06-08T08:22:19.517Z,51.30
2019-06-08T08:24:32.388Z,52.20
2019-06-08T08:27:03.136Z,52.20
2019-06-08T08:29:28.254Z,52.10
2019-06-08T08:31:55.527Z,52.50
2019-06-08T08:34:21.848Z,51.90
2019-06-08T08:36:49.462Z,50.70
2019-06-08T08:39:17.675Z,49.80
2019-06-08T08:41:44.102Z,49.70
2019-06-08T08:44:10.285Z,48.70
2019-06-08T08:46:38.674Z,46.20
2019-06-08T08:49:09.307Z,45.80
2019-06-08T08:51:32.705Z,43.90
2019-06-08T08:54:04.745Z,44.60
2019-06-08T08:56:28.011Z,43.50
2019-06-08T08:58:54.453Z,43.80
2019-06-08T09:01:20.782Z,43.40
2019-06-08T09:03:48.242Z,43.90
2019-06-08T09:06:15.044Z,42.00
2019-06-08T09:08:41.494Z,41.40
2019-06-08T09:11:08.168Z,41.60
2019-06-08T09:13:34.554Z,41.70
2019-06-08T09:16:03.426Z,41.50
2019-06-08T09:18:28.862Z,40.60
2019-06-08T09:20:58.250Z,39.80
2019-06-08T09:23:23.209Z,41.40
2019-06-08T09:25:49.390Z,39.90
2019-06-08T09:28:15.596Z,41.50
2019-06-08T09:30:41.785Z,41.00
2019-06-08T09:33:08.148Z,39.20
2019-06-08T09:35:34.489Z,37.60
2019-06-08T09:38:03.089Z,38.50
2019-06-08T09:40:32.370Z,37.90
2019-06-08T09:43:04.114Z,35.80
2019-06-08T09:45:24.933Z,35.10
2019-06-08T09:47:51.402Z,34.90
2019-06-08T09:50:18.511Z,33.60
2019-06-08T09:52:47.714Z,33.20
2019-06-08T09:55:13.977Z,30.00
2019-06-08T09:57:40.157Z,32.00
2019-06-08T10:00:15.272Z,33.20
2019-06-08T10:02:36.059Z,31.60
2019-06-08T10:05:04.520Z,30.40
2019-06-08T10:07:32.049Z,30.10
2019-06-08T10:10:00.300Z,30.80
2019-06-08T10:12:28.189Z,30.30
2019-06-08T10:14:54.597Z,29.00
2019-06-08T10:17:21.274Z,29.90
2019-06-08T10:19:47.739Z,30.20
2019-06-08T10:22:14.165Z,31.90
2019-06-08T10:24:41.481Z,30.80
2019-06-08T10:27:11.034Z,30.50
2019-06-08T10:29:38.165Z,28.50
2019-06-08T10:32:06.396Z,29.00
2019-06-08T10:34:33.733Z,28.70
2019-06-08T10:37:04.891Z,28.70
2019-06-08T10:39:28.419Z,30.60
2019-06-08T10:41:57.618Z,29.30
2019-06-08T10:44:23.714Z,29.90
2019-06-08T10:46:49.881Z,30.80
2019-06-08T10:49:18.411Z,30.00
2019-06-08T10:51:44.181Z,26.30
2019-06-08T10:54:11.455Z,25.60
2019-06-08T10:56:38.559Z,25.90
2019-06-08T10:59:09.499Z,28.70
2019-06-08T11:01:33.084Z,27.60
2019-06-08T11:04:00.357Z,27.30
2019-06-08T11:06:27.362Z,28.90
2019-06-08T11:08:53.606Z,26.30
2019-06-08T11:11:20.554Z,26.20
2019-06-08T11:13:50.219Z,28.00
2019-06-08T11:16:17.678Z,26.10
2019-06-08T11:18:43.133Z,27.20
2019-06-08T11:21:12.524Z,27.70
2019-06-08T11:23:38.485Z,26.00
2019-06-08T11:26:13.792Z,26.60
2019-06-08T11:28:33.689Z,26.10
2019-06-08T11:30:59.948Z,23.90
2019-06-08T11:33:30.277Z,25.40
2019-06-08T11:35:54.217Z,25.00
2019-06-08T11:38:20.668Z,26.10
2019-06-08T11:40:47.821Z,22.90
2019-06-08T11:43:14.243Z,24.20
2019-06-08T11:45:40.429Z,25.90
2019-06-08T11:48:06.610Z,25.80
2019-06-08T11:50:35.401Z,24.60
2019-06-08T11:53:04.008Z,23.60
2019-06-08T11:55:30.842Z,23.40
2019-06-08T11:57:58.603Z,25.20
2019-06-08T12:00:48.776Z,25.60
2019-06-08T12:03:14.428Z,26.20
2019-06-08T12:05:40.722Z,27.30
2019-06-08T12:08:08.229Z,28.50
2019-06-08T12:10:35.580Z,27.10
2019-06-08T12:13:04.690Z,26.80
2019-06-08T12:15:30.985Z,27.80
2019-06-08T12:17:58.716Z,28.20
2019-06-08T12:20:25.038Z,28.80
2019-06-08T12:22:51.302Z,29.10
2019-06-08T12:25:17.550Z,27.40
2019-06-08T12:27:43.771Z,28.80
2019-06-08T12:30:17.382Z,29.90
2019-06-08T12:32:38.437Z,29.10
2019-06-08T12:35:05.174Z,28.00
2019-06-08T12:37:31.525Z,28.70
2019-06-08T12:39:57.931Z,29.70
2019-06-08T12:42:25.839Z,29.00
2019-06-08T12:44:52.027Z,27.70
2019-06-08T12:47:25.834Z,27.40
2019-06-08T12:49:48.430Z,28.20
2019-06-08T12:52:15.776Z,28.40
2019-06-08T12:54:56.595Z,30.40
2019-06-08T12:57:13.755Z,28.30
2019-06-08T12:59:38.688Z,28.40
2019-06-08T13:02:04.961Z,28.80
2019-06-08T13:04:31.157Z,30.00
2019-06-08T13:06:58.424Z,31.70
2019-06-08T13:09:25.051Z,31.60
2019-06-08T13:11:51.378Z,31.20
2019-06-08T13:14:19.444Z,31.20
2019-06-08T13:16:45.660Z,31.80
2019-06-08T13:19:13.074Z,31.60
2019-06-08T13:21:39.914Z,31.60
2019-06-08T13:24:08.375Z,30.30
2019-06-08T13:26:34.401Z,31.60
2019-06-08T13:29:00.811Z,31.70
2019-06-08T13:31:28.705Z,32.30
2019-06-08T13:33:55.081Z,31.50
2019-06-08T13:36:26.046Z,31.10
2019-06-08T13:38:49.714Z,32.80
2019-06-08T13:41:19.390Z,34.70
2019-06-08T13:43:43.996Z,35.00
2019-06-08T13:46:11.668Z,34.20
2019-06-08T13:48:37.978Z,33.40
2019-06-08T13:51:04.156Z,37.20
2019-06-08T13:53:31.889Z,33.70
2019-06-08T13:55:58.307Z,33.20
2019-06-08T13:58:31.624Z,34.70
2019-06-08T14:00:56.452Z,34.60
2019-06-08T14:03:23.296Z,36.00
2019-06-08T14:05:51.648Z,36.20
2019-06-08T14:08:20.664Z,36.10
2019-06-08T14:10:48.136Z,34.80
2019-06-08T14:13:15.147Z,35.20
2019-06-08T14:15:41.446Z,35.10
2019-06-08T14:18:08.886Z,35.90
2019-06-08T14:20:38.942Z,36.50
2019-06-08T14:23:05.261Z,36.70
2019-06-08T14:25:46.899Z,37.00
2019-06-08T14:27:59.578Z,41.00
2019-06-08T14:30:30.991Z,36.50
2019-06-08T14:32:54.623Z,35.40
2019-06-08T14:35:25.362Z,36.30
2019-06-08T14:37:52.077Z,38.00
2019-06-08T14:40:19.359Z,37.20
2019-06-08T14:42:48.342Z,36.90
2019-06-08T14:45:17.775Z,38.00
2019-06-08T14:47:58.763Z,38.70
2019-06-08T14:50:25.137Z,37.80
2019-06-08T14:52:52.420Z,37.30
2019-06-08T14:55:20.646Z,39.30
2019-06-08T14:57:48.177Z,38.90
2019-06-08T15:00:20.491Z,37.70
2019-06-08T15:02:49.684Z,39.40
2019-06-08T15:05:14.501Z,37.30
2019-06-08T15:07:40.723Z,36.00
2019-06-08T15:10:09.755Z,37.00
2019-06-08T15:12:35.192Z,37.60
2019-06-08T15:15:01.370Z,40.20
2019-06-08T15:17:28.979Z,37.30
2019-06-08T15:19:55.672Z,38.40
2019-06-08T15:22:22.288Z,39.70
2019-06-08T15:24:48.639Z,39.20
2019-06-08T15:27:14.825Z,37.30
2019-06-08T15:29:41.013Z,37.60
2019-06-08T15:32:08.176Z,37.70
2019-06-08T15:34:34.537Z,37.70
2019-06-08T15:37:00.714Z,38.10
2019-06-08T15:39:30.371Z,38.70
2019-06-08T15:41:55.178Z,37.70
2019-06-08T15:44:23.120Z,38.70
2019-06-08T15:46:49.438Z,38.40
2019-06-08T15:49:15.620Z,37.80
2019-06-08T15:51:41.800Z,38.20
2019-06-08T15:54:08.166Z,36.80
2019-06-08T15:56:47.507Z,37.30
2019-06-08T15:59:03.051Z,38.30
2019-06-08T16:01:31.449Z,38.10
2019-06-08T16:03:57.821Z,37.20
2019-06-08T16:06:24.211Z,39.10
2019-06-08T16:08:50.814Z,39.70
2019-06-08T16:11:17.008Z,39.60
2019-06-08T16:13:43.216Z,38.10
2019-06-08T16:16:09.382Z,37.90
2019-06-08T16:18:36.602Z,38.00
2019-06-08T16:21:02.870Z,37.60
2019-06-08T16:23:29.878Z,37.90
2019-06-08T16:25:56.480Z,38.20
2019-06-08T16:28:22.675Z,38.10
2019-06-08T16:30:48.860Z,39.10
2019-06-08T16:33:15.043Z,39.60
2019-06-08T16:35:41.344Z,39.70
2019-06-08T16:38:07.524Z,40.40
2019-06-08T16:40:34.290Z,40.20
2019-06-08T16:43:00.592Z,39.10
2019-06-08T16:45:27.023Z,40.00
2019-06-08T16:47:53.252Z,40.10
2019-06-08T16:50:24.457Z,39.90
2019-06-08T16:52:47.557Z,39.30
2019-06-08T16:55:13.832Z,39.60
2019-06-08T16:57:41.234Z,40.00
2019-06-08T17:02:37.175Z,39.80
2019-06-08T17:05:06.619Z,41.20
2019-06-08T17:07:33.701Z,41.40
2019-06-08T17:10:00.025Z,40.70
2019-06-08T17:12:26.239Z,41.20
2019-06-08T17:14:52.490Z,41.20
2019-06-08T17:17:18.787Z,41.80
2019-06-08T17:19:44.949Z,41.80
2019-06-08T17:22:12.256Z,41.30
2019-06-08T17:24:38.936Z,41.70
2019-06-08T17:27:05.286Z,42.40
2019-06-08T17:29:32.711Z,42.60
2019-06-08T17:31:59.119Z,42.80
2019-06-08T17:34:25.273Z,43.00
2019-06-08T17:36:51.523Z,42.70
2019-06-08T17:39:17.857Z,42.60
2019-06-08T17:41:44.050Z,42.60
2019-06-08T17:44:10.426Z,43.10
2019-06-08T17:46:36.616Z,44.30
2019-06-08T17:49:02.836Z,44.40
2019-06-08T17:51:29.000Z,44.20
2019-06-08T17:53:55.194Z,43.80
2019-06-08T17:56:21.358Z,43.30
2019-06-08T17:58:47.676Z,43.70
2019-06-08T18:01:13.977Z,44.80
2019-06-08T18:03:41.463Z,44.40
2019-06-08T18:06:08.317Z,44.60
2019-06-08T18:08:36.759Z,44.90
2019-06-08T18:11:02.670Z,45.30
2019-06-08T18:13:28.833Z,45.80
2019-06-08T18:15:57.462Z,45.80
2019-06-08T18:18:24.209Z,45.70
2019-06-08T18:20:52.248Z,46.40
2019-06-08T18:23:18.497Z,47.30
2019-06-08T18:25:47.245Z,46.10
2019-06-08T18:28:13.682Z,46.10
2019-06-08T18:30:43.103Z,46.50
2019-06-08T18:33:08.146Z,46.50
2019-06-08T18:35:35.702Z,46.80
2019-06-08T18:38:02.502Z,47.30
2019-06-08T18:40:28.698Z,47.40
2019-06-08T18:42:57.487Z,47.50
2019-06-08T18:45:23.542Z,48.40
2019-06-08T18:47:49.729Z,49.70
2019-06-08T18:50:17.350Z,48.60
2019-06-08T18:52:45.352Z,49.00
2019-06-08T18:55:12.677Z,49.00
2019-06-08T18:57:41.018Z,49.00
2019-06-08T19:00:09.126Z,49.30
2019-06-08T19:02:39.472Z,49.10
2019-06-08T19:05:04.777Z,49.20
2019-06-08T19:07:31.061Z,49.40
2019-06-08T19:09:58.730Z,49.70
2019-06-08T19:12:24.914Z,50.00
2019-06-08T19:14:52.267Z,50.20
2019-06-08T19:17:19.226Z,50.20
2019-06-08T19:19:48.447Z,50.50
2019-06-08T19:22:13.592Z,50.50
2019-06-08T19:24:43.632Z,50.60
2019-06-08T19:27:08.839Z,50.60
2019-06-08T19:29:35.036Z,50.80
2019-06-08T19:32:01.218Z,51.50
2019-06-08T19:34:29.036Z,51.40
2019-06-08T19:36:57.308Z,52.00
2019-06-08T19:39:23.512Z,52.40
2019-06-08T19:41:50.611Z,52.40
2019-06-08T19:44:18.361Z,52.90
2019-06-08T19:46:47.561Z,52.60
2019-06-08T19:49:13.136Z,53.40
2019-06-08T19:51:40.267Z,53.30
2019-06-08T19:54:07.467Z,53.60
2019-06-08T19:56:33.655Z,53.70
2019-06-08T19:59:04.667Z,54.70
2019-06-08T20:01:28.398Z,54.80
2019-06-08T20:03:54.706Z,55.60
2019-06-08T20:06:20.980Z,56.00
2019-06-08T20:08:49.946Z,55.70
2019-06-08T20:11:17.311Z,55.20
2019-06-08T20:13:43.592Z,55.50
2019-06-08T20:16:09.773Z,55.90
2019-06-08T20:18:37.503Z,56.50
2019-06-08T20:21:03.830Z,55.90
2019-06-08T20:23:30.021Z,57.00
2019-06-08T20:25:57.367Z,56.70
2019-06-08T20:28:24.253Z,57.00
2019-06-08T20:30:50.684Z,58.70
2019-06-08T20:33:16.877Z,59.50
2019-06-08T20:35:43.568Z,59.40
2019-06-08T20:38:09.765Z,59.20
2019-06-08T20:40:38.220Z,60.00
2019-06-08T20:43:04.062Z,60.10
2019-06-08T20:45:30.305Z,60.80
2019-06-08T20:47:58.552Z,62.10
2019-06-08T20:50:27.010Z,63.50
2019-06-08T20:52:53.813Z,64.60
2019-06-08T20:55:20.117Z,65.50
2019-06-08T20:57:49.055Z,65.70
2019-06-08T21:00:14.545Z,65.30
2019-06-08T21:02:40.727Z,64.60
2019-06-08T21:05:07.846Z,66.10
2019-06-08T21:07:34.219Z,66.80
2019-06-08T21:10:00.456Z,67.60
2019-06-08T21:12:28.313Z,67.70
2019-06-08T21:14:55.517Z,67.20
2019-06-08T21:17:21.729Z,67.90
2019-06-08T21:19:48.828Z,68.00
2019-06-08T21:22:15.218Z,67.50
2019-06-08T21:24:41.497Z,67.90
2019-06-08T21:27:08.321Z,67.10
2019-06-08T21:29:47.677Z,67.20
2019-06-08T21:32:03.021Z,67.10
2019-06-08T21:34:29.413Z,67.80
2019-06-08T21:36:56.834Z,68.40
2019-06-08T21:39:24.429Z,68.70
2019-06-08T21:41:54.456Z,68.30
2019-06-08T21:44:18.724Z,68.40
2019-06-08T21:46:47.452Z,69.40
2019-06-08T21:49:13.090Z,69.20
2019-06-08T21:51:39.281Z,70.00
2019-06-08T21:54:07.108Z,69.90
2019-06-08T21:56:33.536Z,70.20
2019-06-08T21:59:01.094Z,70.30
2019-06-08T22:01:30.005Z,70.70
2019-06-08T22:03:58.499Z,70.00
2019-06-08T22:06:24.286Z,70.20
2019-06-08T22:08:50.478Z,72.00
2019-06-08T22:11:17.737Z,73.20
2019-06-08T22:13:44.016Z,73.00
2019-06-08T22:16:10.358Z,73.70
2019-06-08T22:18:38.086Z,74.90
2019-06-08T22:21:04.481Z,73.60
2019-06-08T22:23:30.650Z,74.20
2019-06-08T22:25:59.220Z,74.20
2019-06-08T22:28:26.999Z,74.60
2019-06-08T22:30:53.640Z,74.70
2019-06-08T22:33:19.876Z,74.80
2019-06-08T22:35:47.773Z,75.40
2019-06-08T22:38:14.149Z,75.30
2019-06-08T22:40:40.313Z,76.40
2019-06-08T22:43:08.128Z,76.20
2019-06-08T22:45:34.494Z,77.70
2019-06-08T22:48:02.143Z,77.40
2019-06-08T22:50:29.849Z,77.70
2019-06-08T22:52:59.322Z,78.60
2019-06-08T22:55:24.100Z,79.00
2019-06-08T22:57:50.401Z,78.50
2019-06-08T23:00:20.434Z,77.40
2019-06-08T23:02:45.136Z,75.70
2019-06-08T23:05:11.516Z,75.20
2019-06-08T23:07:37.779Z,76.70
2019-06-08T23:10:06.558Z,76.00
2019-06-08T23:12:33.511Z,75.60
2019-06-08T23:15:00.611Z,74.30
2019-06-08T23:17:28.106Z,73.90
2019-06-08T23:19:55.009Z,74.10
2019-06-08T23:22:21.765Z,73.50
2019-06-08T23:24:47.955Z,73.80
2019-06-08T23:27:14.120Z,72.40
2019-06-08T23:29:40.343Z,72.50
2019-06-08T23:32:11.115Z,72.70
2019-06-08T23:34:34.589Z,73.20
2019-06-08T23:37:05.569Z,74.40
2019-06-08T23:39:28.882Z,74.00
2019-06-08T23:41:55.040Z,72.80
2019-06-08T23:44:21.244Z,73.10
2019-06-08T23:46:47.762Z,74.10
2019-06-08T23:49:13.948Z,74.00
2019-06-08T23:51:40.146Z,73.90
2019-06-08T23:54:09.853Z,73.50
2019-06-08T23:56:34.388Z,74.40
2019-06-08T23:59:01.393Z,74.00
